Observations for GENOVA SESTRI, Italy (LIMJ)

LIMJ 191950Z 15012KT 9999 FEW014 SCT028 BKN060 20/18 Q1015  
LIMJ 191920Z 15016KT 9999 FEW014 SCT033 BKN060 20/18 Q1015  
LIMJ 191850Z 15015KT 9999 FEW014 SCT033 BKN060 20/18 Q1015  
LIMJ 191820Z 14016KT 9999 FEW014 SCT033 BKN060 20/18 Q1015  
LIMJ 191750Z 14015KT 9999 FEW015 SCT033 BKN070 20/18 Q1015  
LIMJ 191720Z 15014KT 9999 FEW022 SCT033 BKN070 20/18 Q1015  
LIMJ 191650Z 14015KT 9999 FEW022 BKN070 20/18 Q1014 
LIMJ 191620Z 15014KT 9999 FEW014 BKN070 20/17 Q1014 
LIMJ 191550Z 14017KT 9999 FEW014 BKN070 20/17 Q1014 
LIMJ 191520Z 13017KT 9999 FEW014 SCT037 BKN060 20/18 Q1014  
LIMJ 191450Z 13016KT 9999 FEW022 SCT037 BKN060 20/18 Q1014  
LIMJ 191420Z 13015KT 9999 FEW022 SCT037 BKN060 20/18 Q1014  
LIMJ 191350Z 12012KT 9999 FEW022 SCT037 BKN060 20/17 Q1014  
LIMJ 191320Z 14011KT 9999 FEW022 SCT037 BKN060 21/16 Q1014  
LIMJ 191250Z 14011KT 9999 FEW017 SCT037 BKN050 20/17 Q1015  
LIMJ 191220Z 14012KT 9999 FEW015 SCT025 BKN040 20/17 Q1015  
LIMJ 191150Z 15013KT 9999 FEW015 SCT025 BKN040 20/17 Q1015  
LIMJ 191120Z 15013KT 9999 FEW015 SCT025 BKN040 20/17 Q1015  
LIMJ 191050Z 14012KT 9999 FEW015 SCT025 BKN040 20/17 Q1015  
LIMJ 191020Z 14014KT 9999 FEW015 SCT025 BKN036 20/17 Q1015  
LIMJ 190950Z 15013KT 9999 FEW015 BKN028 BKN036 20/17 Q1015  
LIMJ 190920Z 15012KT 9999 FEW015 BKN028 20/17 Q1015 
LIMJ 190850Z 16011KT 9999 -RA FEW015 BKN026 20/17 Q1015 
LIMJ 190820Z 16009KT 9999 -RA FEW015 BKN026 20/17 Q1015 
LIMJ 190750Z 16012KT 9999 -RA SCT015 BKN026 20/17 Q1015 
LIMJ 190720Z 15016KT 9000 -RA FEW010 SCT015 BKN026 20/17 Q1014  
LIMJ 190650Z 11011KT 9000 -RA FEW010 SCT015 BKN026 18/17 Q1014 RERA 
LIMJ 190620Z 15012KT 5000 RA SCT015 BKN026 19/17 Q1014  
LIMJ 190550Z 16012KT 5000 -RA SCT015 BKN026 19/17 Q1014 
LIMJ 190520Z 15016KT 9999 -RA SCT015 BKN026 20/17 Q1014 
LIMJ 190450Z 13018KT 8000 -RA SCT015 BKN035 19/17 Q1014 
LIMJ 190420Z 15019KT 9000 -RA SCT015 BKN035 19/17 Q1014 
LIMJ 190350Z 16015KT 7000 -RA SCT015 BKN030 19/17 Q1014 
LIMJ 190320Z 14020KT 9999 -RA SCT015 BKN030 19/17 Q1014 
LIMJ 190250Z 17008G18KT 130V210 9999 SCT015 BKN030 18/17 Q1014  
LIMJ 190220Z 13006G16KT 070V230 6000 SCT015 BKN030 18/17 Q1014  
LIMJ 190150Z 17011KT 9999 -RA SCT020 BKN040 18/16 Q1015 
LIMJ 190120Z 13014KT 9999 R28/1300VP2000U -RA SCT020 BKN040 18/16 Q1015 
LIMJ 190020Z 12014KT 9999 -RA SCT020 BKN040 18/16 Q1015 
LIMJ 182350Z 12014KT 9999 -RA SCT020 BKN040 18/16 Q1016 
LIMJ 182320Z 14016KT 9999 -RA SCT020 BKN040 18/16 Q1016 
LIMJ 182250Z 12013KT 9999 -RA SCT020 BKN040 18/16 Q1016 
LIMJ 182220Z 13015KT 9999 SCT020 BKN040 19/16 Q1016 
LIMJ 182150Z 13016KT 9999 -RA SCT020 BKN040 19/15 Q1016 
LIMJ 182120Z 13014KT 9999 -RA SCT020 BKN040 19/15 Q1016 
LIMJ 182050Z 13014KT 9999 -RA SCT020 BKN040 19/16 Q1016 RERA
LIMJ 182020Z 13016KT 7000 RA SCT020 BKN035 19/16 Q1016  
LIMJ 181950Z 13015KT 9999 -RA SCT020 BKN045 19/16 Q1016 
LIMJ 181920Z 13014KT 9999 -RA SCT020 BKN045 19/16 Q1016